sensor_id;sensor_type;location;lat;lon;timestamp;P1;durP1;ratioP1;P2;durP2;ratioP2
7477;SDS011;3780;42.424;25.636;2024-02-21T00:00:28;41.70;;;34.30;;
7477;SDS011;3780;42.424;25.636;2024-02-21T00:02:53;42.58;;;34.08;;
7477;SDS011;3780;42.424;25.636;2024-02-21T00:05:18;42.30;;;33.72;;
7477;SDS011;3780;42.424;25.636;2024-02-21T00:07:43;38.47;;;29.27;;
7477;SDS011;3780;42.424;25.636;2024-02-21T00:10:09;37.63;;;28.88;;
7477;SDS011;3780;42.424;25.636;2024-02-21T00:12:34;38.03;;;29.80;;
7477;SDS011;3780;42.424;25.636;2024-02-21T00:15:00;39.58;;;29.50;;
7477;SDS011;3780;42.424;25.636;2024-02-21T00:17:25;36.88;;;29.33;;
7477;SDS011;3780;42.424;25.636;2024-02-21T00:19:51;38.85;;;30.23;;
7477;SDS011;3780;42.424;25.636;2024-02-21T00:22:16;42.60;;;31.15;;
7477;SDS011;3780;42.424;25.636;2024-02-21T00:24:41;41.17;;;34.53;;
7477;SDS011;3780;42.424;25.636;2024-02-21T00:27:07;43.08;;;38.20;;
7477;SDS011;3780;42.424;25.636;2024-02-21T00:29:32;45.08;;;39.28;;
7477;SDS011;3780;42.424;25.636;2024-02-21T00:31:57;42.95;;;34.53;;
7477;SDS011;3780;42.424;25.636;2024-02-21T00:34:23;38.13;;;30.38;;
7477;SDS011;3780;42.424;25.636;2024-02-21T00:36:48;36.83;;;29.20;;
7477;SDS011;3780;42.424;25.636;2024-02-21T00:39:13;37.10;;;29.80;;
7477;SDS011;3780;42.424;25.636;2024-02-21T00:41:38;40.97;;;29.30;;
7477;SDS011;3780;42.424;25.636;2024-02-21T00:44:04;41.92;;;29.17;;
7477;SDS011;3780;42.424;25.636;2024-02-21T00:46:31;36.45;;;29.25;;
7477;SDS011;3780;42.424;25.636;2024-02-21T00:48:56;39.83;;;29.17;;
7477;SDS011;3780;42.424;25.636;2024-02-21T00:51:21;36.20;;;28.45;;
7477;SDS011;3780;42.424;25.636;2024-02-21T00:53:46;38.00;;;28.38;;
7477;SDS011;3780;42.424;25.636;2024-02-21T00:56:12;37.80;;;27.95;;
7477;SDS011;3780;42.424;25.636;2024-02-21T00:58:37;38.80;;;30.17;;
7477;SDS011;3780;42.424;25.636;2024-02-21T01:01:02;37.00;;;31.45;;
7477;SDS011;3780;42.424;25.636;2024-02-21T01:03:28;41.00;;;34.28;;
7477;SDS011;3780;42.424;25.636;2024-02-21T01:05:53;40.28;;;32.83;;
7477;SDS011;3780;42.424;25.636;2024-02-21T01:08:18;37.83;;;31.35;;
7477;SDS011;3780;42.424;25.636;2024-02-21T01:10:44;37.78;;;31.83;;
7477;SDS011;3780;42.424;25.636;2024-02-21T01:13:09;40.67;;;32.25;;
7477;SDS011;3780;42.424;25.636;2024-02-21T01:15:34;43.97;;;34.05;;
7477;SDS011;3780;42.424;25.636;2024-02-21T01:18:00;37.47;;;29.90;;
7477;SDS011;3780;42.424;25.636;2024-02-21T01:20:25;40.10;;;29.90;;
7477;SDS011;3780;42.424;25.636;2024-02-21T01:22:51;37.67;;;29.63;;
7477;SDS011;3780;42.424;25.636;2024-02-21T01:25:16;39.63;;;29.42;;
7477;SDS011;3780;42.424;25.636;2024-02-21T01:27:41;33.67;;;28.05;;
7477;SDS011;3780;42.424;25.636;2024-02-21T01:30:07;34.60;;;28.45;;
7477;SDS011;3780;42.424;25.636;2024-02-21T01:32:32;37.55;;;28.67;;
7477;SDS011;3780;42.424;25.636;2024-02-21T01:34:57;36.80;;;28.40;;
7477;SDS011;3780;42.424;25.636;2024-02-21T01:37:23;35.25;;;28.10;;
7477;SDS011;3780;42.424;25.636;2024-02-21T01:39:48;35.17;;;27.50;;
7477;SDS011;3780;42.424;25.636;2024-02-21T01:42:14;34.65;;;27.40;;
7477;SDS011;3780;42.424;25.636;2024-02-21T01:44:39;31.88;;;24.42;;
7477;SDS011;3780;42.424;25.636;2024-02-21T01:47:05;36.47;;;25.48;;
7477;SDS011;3780;42.424;25.636;2024-02-21T01:49:30;35.15;;;24.48;;
7477;SDS011;3780;42.424;25.636;2024-02-21T01:51:56;33.33;;;25.30;;
7477;SDS011;3780;42.424;25.636;2024-02-21T01:54:21;31.35;;;25.10;;
7477;SDS011;3780;42.424;25.636;2024-02-21T01:56:47;35.95;;;25.52;;
7477;SDS011;3780;42.424;25.636;2024-02-21T01:59:13;33.80;;;24.90;;
7477;SDS011;3780;42.424;25.636;2024-02-21T02:01:38;36.63;;;25.08;;
7477;SDS011;3780;42.424;25.636;2024-02-21T02:04:04;34.40;;;24.27;;
7477;SDS011;3780;42.424;25.636;2024-02-21T02:06:30;35.20;;;24.50;;
7477;SDS011;3780;42.424;25.636;2024-02-21T02:08:56;35.33;;;24.77;;
7477;SDS011;3780;42.424;25.636;2024-02-21T02:11:21;34.65;;;24.13;;
7477;SDS011;3780;42.424;25.636;2024-02-21T02:13:47;29.92;;;23.58;;
7477;SDS011;3780;42.424;25.636;2024-02-21T02:16:12;33.85;;;25.70;;
7477;SDS011;3780;42.424;25.636;2024-02-21T02:18:37;35.10;;;25.00;;
7477;SDS011;3780;42.424;25.636;2024-02-21T02:21:08;39.60;;;26.40;;
7477;SDS011;3780;42.424;25.636;2024-02-21T02:23:35;36.97;;;28.73;;
7477;SDS011;3780;42.424;25.636;2024-02-21T02:26:01;40.00;;;31.88;;
7477;SDS011;3780;42.424;25.636;2024-02-21T02:28:26;40.17;;;31.90;;
7477;SDS011;3780;42.424;25.636;2024-02-21T02:30:52;41.65;;;33.25;;
7477;SDS011;3780;42.424;25.636;2024-02-21T02:33:17;41.35;;;31.38;;
7477;SDS011;3780;42.424;25.636;2024-02-21T02:35:43;39.13;;;32.20;;
7477;SDS011;3780;42.424;25.636;2024-02-21T02:38:08;40.33;;;31.88;;
7477;SDS011;3780;42.424;25.636;2024-02-21T02:40:35;41.03;;;31.63;;
7477;SDS011;3780;42.424;25.636;2024-02-21T02:43:00;42.17;;;30.98;;
7477;SDS011;3780;42.424;25.636;2024-02-21T02:45:26;40.20;;;34.47;;
7477;SDS011;3780;42.424;25.636;2024-02-21T02:47:52;42.00;;;32.35;;
7477;SDS011;3780;42.424;25.636;2024-02-21T02:50:17;53.47;;;40.83;;
7477;SDS011;3780;42.424;25.636;2024-02-21T02:52:42;61.85;;;43.38;;
7477;SDS011;3780;42.424;25.636;2024-02-21T02:55:08;45.35;;;33.00;;
7477;SDS011;3780;42.424;25.636;2024-02-21T02:57:33;43.63;;;32.97;;
7477;SDS011;3780;42.424;25.636;2024-02-21T02:59:58;43.65;;;33.20;;
7477;SDS011;3780;42.424;25.636;2024-02-21T03:02:24;52.10;;;39.95;;
7477;SDS011;3780;42.424;25.636;2024-02-21T03:04:49;40.83;;;31.33;;
7477;SDS011;3780;42.424;25.636;2024-02-21T03:07:15;41.22;;;32.83;;
7477;SDS011;3780;42.424;25.636;2024-02-21T03:09:40;41.47;;;30.80;;
7477;SDS011;3780;42.424;25.636;2024-02-21T03:12:08;40.10;;;30.45;;
7477;SDS011;3780;42.424;25.636;2024-02-21T03:14:33;41.38;;;31.00;;
7477;SDS011;3780;42.424;25.636;2024-02-21T03:16:58;40.05;;;30.27;;
7477;SDS011;3780;42.424;25.636;2024-02-21T03:19:24;41.65;;;29.45;;
7477;SDS011;3780;42.424;25.636;2024-02-21T03:21:49;39.55;;;30.02;;
7477;SDS011;3780;42.424;25.636;2024-02-21T03:24:15;40.22;;;29.80;;
7477;SDS011;3780;42.424;25.636;2024-02-21T03:26:40;41.05;;;29.90;;
7477;SDS011;3780;42.424;25.636;2024-02-21T03:29:06;35.88;;;30.17;;
7477;SDS011;3780;42.424;25.636;2024-02-21T03:31:31;40.90;;;29.33;;
7477;SDS011;3780;42.424;25.636;2024-02-21T03:33:57;38.78;;;29.42;;
7477;SDS011;3780;42.424;25.636;2024-02-21T03:36:22;38.70;;;28.60;;
7477;SDS011;3780;42.424;25.636;2024-02-21T03:38:47;41.13;;;29.42;;
7477;SDS011;3780;42.424;25.636;2024-02-21T03:41:13;36.42;;;28.98;;
7477;SDS011;3780;42.424;25.636;2024-02-21T03:43:38;44.75;;;30.15;;
7477;SDS011;3780;42.424;25.636;2024-02-21T03:46:04;39.33;;;28.65;;
7477;SDS011;3780;42.424;25.636;2024-02-21T03:48:29;42.78;;;29.35;;
7477;SDS011;3780;42.424;25.636;2024-02-21T03:50:54;41.10;;;29.77;;
7477;SDS011;3780;42.424;25.636;2024-02-21T03:53:19;37.75;;;29.73;;
7477;SDS011;3780;42.424;25.636;2024-02-21T03:55:45;39.65;;;29.73;;
7477;SDS011;3780;42.424;25.636;2024-02-21T03:58:10;38.58;;;29.33;;
7477;SDS011;3780;42.424;25.636;2024-02-21T04:00:35;46.63;;;31.58;;
7477;SDS011;3780;42.424;25.636;2024-02-21T04:03:01;41.15;;;29.17;;
7477;SDS011;3780;42.424;25.636;2024-02-21T04:05:26;37.72;;;29.02;;
7477;SDS011;3780;42.424;25.636;2024-02-21T04:07:51;38.08;;;28.73;;
7477;SDS011;3780;42.424;25.636;2024-02-21T04:10:17;38.78;;;29.85;;
7477;SDS011;3780;42.424;25.636;2024-02-21T04:12:42;42.85;;;29.23;;
7477;SDS011;3780;42.424;25.636;2024-02-21T04:15:07;33.65;;;24.05;;
7477;SDS011;3780;42.424;25.636;2024-02-21T04:17:34;35.05;;;24.65;;
7477;SDS011;3780;42.424;25.636;2024-02-21T04:20:03;34.22;;;26.17;;
7477;SDS011;3780;42.424;25.636;2024-02-21T04:22:30;37.88;;;25.13;;
7477;SDS011;3780;42.424;25.636;2024-02-21T04:24:55;36.90;;;25.90;;
7477;SDS011;3780;42.424;25.636;2024-02-21T04:27:21;32.70;;;24.73;;
7477;SDS011;3780;42.424;25.636;2024-02-21T04:29:46;36.75;;;26.15;;
7477;SDS011;3780;42.424;25.636;2024-02-21T04:32:11;39.42;;;27.33;;
7477;SDS011;3780;42.424;25.636;2024-02-21T04:34:37;35.40;;;27.70;;
7477;SDS011;3780;42.424;25.636;2024-02-21T04:37:02;40.97;;;28.35;;
7477;SDS011;3780;42.424;25.636;2024-02-21T04:39:27;37.67;;;28.02;;
7477;SDS011;3780;42.424;25.636;2024-02-21T04:41:53;38.95;;;29.23;;
7477;SDS011;3780;42.424;25.636;2024-02-21T04:44:18;36.92;;;27.55;;
7477;SDS011;3780;42.424;25.636;2024-02-21T04:46:46;40.05;;;29.10;;
7477;SDS011;3780;42.424;25.636;2024-02-21T04:49:12;34.67;;;26.83;;
7477;SDS011;3780;42.424;25.636;2024-02-21T04:51:37;36.65;;;28.38;;
7477;SDS011;3780;42.424;25.636;2024-02-21T04:54:02;38.45;;;28.20;;
7477;SDS011;3780;42.424;25.636;2024-02-21T04:56:28;39.08;;;27.58;;
7477;SDS011;3780;42.424;25.636;2024-02-21T04:58:54;42.67;;;29.08;;
7477;SDS011;3780;42.424;25.636;2024-02-21T05:01:19;43.28;;;29.95;;
7477;SDS011;3780;42.424;25.636;2024-02-21T05:03:44;41.60;;;29.02;;
7477;SDS011;3780;42.424;25.636;2024-02-21T05:06:09;41.85;;;29.92;;
7477;SDS011;3780;42.424;25.636;2024-02-21T05:08:35;44.70;;;30.70;;
7477;SDS011;3780;42.424;25.636;2024-02-21T05:11:00;44.13;;;31.80;;
7477;SDS011;3780;42.424;25.636;2024-02-21T05:13:26;51.80;;;32.70;;
7477;SDS011;3780;42.424;25.636;2024-02-21T05:15:51;52.05;;;32.67;;
7477;SDS011;3780;42.424;25.636;2024-02-21T05:18:16;52.28;;;32.22;;
7477;SDS011;3780;42.424;25.636;2024-02-21T05:20:41;50.63;;;31.88;;
7477;SDS011;3780;42.424;25.636;2024-02-21T05:23:07;47.85;;;31.20;;
7477;SDS011;3780;42.424;25.636;2024-02-21T05:25:32;50.40;;;32.15;;
7477;SDS011;3780;42.424;25.636;2024-02-21T05:27:57;49.13;;;32.78;;
7477;SDS011;3780;42.424;25.636;2024-02-21T05:30:27;48.63;;;33.95;;
7477;SDS011;3780;42.424;25.636;2024-02-21T05:32:52;45.78;;;32.72;;
7477;SDS011;3780;42.424;25.636;2024-02-21T05:35:17;51.92;;;32.90;;
7477;SDS011;3780;42.424;25.636;2024-02-21T05:37:43;47.83;;;32.25;;
7477;SDS011;3780;42.424;25.636;2024-02-21T05:40:08;45.30;;;32.72;;
7477;SDS011;3780;42.424;25.636;2024-02-21T05:42:34;47.53;;;32.80;;
7477;SDS011;3780;42.424;25.636;2024-02-21T05:44:59;50.35;;;32.00;;
7477;SDS011;3780;42.424;25.636;2024-02-21T05:47:24;49.38;;;31.92;;
7477;SDS011;3780;42.424;25.636;2024-02-21T05:49:49;45.88;;;32.13;;
7477;SDS011;3780;42.424;25.636;2024-02-21T05:52:18;49.20;;;32.22;;
7477;SDS011;3780;42.424;25.636;2024-02-21T05:54:43;47.35;;;31.27;;
7477;SDS011;3780;42.424;25.636;2024-02-21T05:57:09;41.42;;;30.75;;
7477;SDS011;3780;42.424;25.636;2024-02-21T05:59:34;44.83;;;31.95;;
7477;SDS011;3780;42.424;25.636;2024-02-21T06:02:01;41.60;;;29.98;;
7477;SDS011;3780;42.424;25.636;2024-02-21T06:04:28;43.92;;;30.25;;
7477;SDS011;3780;42.424;25.636;2024-02-21T06:06:54;42.17;;;29.48;;
7477;SDS011;3780;42.424;25.636;2024-02-21T06:09:19;41.70;;;28.25;;
7477;SDS011;3780;42.424;25.636;2024-02-21T06:11:44;41.35;;;28.60;;
7477;SDS011;3780;42.424;25.636;2024-02-21T06:14:11;42.03;;;29.58;;
7477;SDS011;3780;42.424;25.636;2024-02-21T06:16:36;44.28;;;31.52;;
7477;SDS011;3780;42.424;25.636;2024-02-21T06:19:02;47.00;;;33.00;;
7477;SDS011;3780;42.424;25.636;2024-02-21T06:21:31;44.25;;;31.92;;
7477;SDS011;3780;42.424;25.636;2024-02-21T06:23:56;40.63;;;30.55;;
7477;SDS011;3780;42.424;25.636;2024-02-21T06:26:21;46.13;;;30.42;;
7477;SDS011;3780;42.424;25.636;2024-02-21T06:28:47;40.67;;;29.65;;
7477;SDS011;3780;42.424;25.636;2024-02-21T06:31:12;45.15;;;26.83;;
7477;SDS011;3780;42.424;25.636;2024-02-21T06:33:37;44.30;;;26.25;;
7477;SDS011;3780;42.424;25.636;2024-02-21T06:36:03;44.97;;;27.92;;
7477;SDS011;3780;42.424;25.636;2024-02-21T06:38:28;38.28;;;24.75;;
7477;SDS011;3780;42.424;25.636;2024-02-21T06:40:53;36.33;;;24.65;;
7477;SDS011;3780;42.424;25.636;2024-02-21T06:43:20;47.20;;;26.00;;
7477;SDS011;3780;42.424;25.636;2024-02-21T06:45:45;46.45;;;26.30;;
7477;SDS011;3780;42.424;25.636;2024-02-21T06:48:16;49.78;;;31.52;;
7477;SDS011;3780;42.424;25.636;2024-02-21T06:50:41;42.55;;;25.58;;
7477;SDS011;3780;42.424;25.636;2024-02-21T06:53:06;39.03;;;23.55;;
7477;SDS011;3780;42.424;25.636;2024-02-21T06:55:32;40.50;;;24.52;;
7477;SDS011;3780;42.424;25.636;2024-02-21T06:57:57;41.70;;;24.60;;
7477;SDS011;3780;42.424;25.636;2024-02-21T07:00:22;36.35;;;24.13;;
7477;SDS011;3780;42.424;25.636;2024-02-21T07:02:48;35.53;;;24.65;;
7477;SDS011;3780;42.424;25.636;2024-02-21T07:05:13;36.17;;;25.35;;
7477;SDS011;3780;42.424;25.636;2024-02-21T07:07:38;35.58;;;23.90;;
7477;SDS011;3780;42.424;25.636;2024-02-21T07:10:05;32.97;;;23.42;;
7477;SDS011;3780;42.424;25.636;2024-02-21T07:12:31;33.15;;;23.42;;
7477;SDS011;3780;42.424;25.636;2024-02-21T07:14:56;31.77;;;23.65;;
7477;SDS011;3780;42.424;25.636;2024-02-21T07:17:21;36.42;;;24.80;;
7477;SDS011;3780;42.424;25.636;2024-02-21T07:19:46;30.05;;;23.73;;
7477;SDS011;3780;42.424;25.636;2024-02-21T07:22:12;41.00;;;25.98;;
7477;SDS011;3780;42.424;25.636;2024-02-21T07:24:37;41.15;;;26.33;;
7477;SDS011;3780;42.424;25.636;2024-02-21T07:27:02;51.40;;;30.83;;
7477;SDS011;3780;42.424;25.636;2024-02-21T07:29:29;57.63;;;33.00;;
7477;SDS011;3780;42.424;25.636;2024-02-21T07:31:55;73.32;;;40.25;;
7477;SDS011;3780;42.424;25.636;2024-02-21T07:34:20;70.88;;;38.22;;
7477;SDS011;3780;42.424;25.636;2024-02-21T07:36:46;57.70;;;33.28;;
7477;SDS011;3780;42.424;25.636;2024-02-21T07:39:11;53.47;;;31.92;;
7477;SDS011;3780;42.424;25.636;2024-02-21T07:41:36;44.13;;;28.30;;
7477;SDS011;3780;42.424;25.636;2024-02-21T07:44:03;45.22;;;28.23;;
7477;SDS011;3780;42.424;25.636;2024-02-21T07:46:29;44.53;;;28.60;;
7477;SDS011;3780;42.424;25.636;2024-02-21T07:48:54;48.05;;;32.88;;
7477;SDS011;3780;42.424;25.636;2024-02-21T07:51:19;43.70;;;31.08;;
7477;SDS011;3780;42.424;25.636;2024-02-21T07:53:45;38.35;;;26.42;;
7477;SDS011;3780;42.424;25.636;2024-02-21T07:56:11;46.55;;;28.65;;
7477;SDS011;3780;42.424;25.636;2024-02-21T07:58:37;39.15;;;27.15;;
7477;SDS011;3780;42.424;25.636;2024-02-21T08:01:02;32.10;;;24.13;;
7477;SDS011;3780;42.424;25.636;2024-02-21T08:03:27;33.33;;;24.55;;
7477;SDS011;3780;42.424;25.636;2024-02-21T08:05:53;32.95;;;24.20;;
7477;SDS011;3780;42.424;25.636;2024-02-21T08:08:18;37.10;;;24.55;;
7477;SDS011;3780;42.424;25.636;2024-02-21T08:10:46;35.08;;;24.92;;
7477;SDS011;3780;42.424;25.636;2024-02-21T08:13:11;32.63;;;25.05;;
7477;SDS011;3780;42.424;25.636;2024-02-21T08:15:36;37.63;;;24.33;;
7477;SDS011;3780;42.424;25.636;2024-02-21T08:18:04;32.78;;;24.10;;
7477;SDS011;3780;42.424;25.636;2024-02-21T08:20:30;31.55;;;23.30;;
7477;SDS011;3780;42.424;25.636;2024-02-21T08:22:55;31.60;;;23.10;;
7477;SDS011;3780;42.424;25.636;2024-02-21T08:25:20;33.30;;;22.67;;
7477;SDS011;3780;42.424;25.636;2024-02-21T08:27:46;35.50;;;24.25;;
7477;SDS011;3780;42.424;25.636;2024-02-21T08:30:11;38.47;;;24.58;;
7477;SDS011;3780;42.424;25.636;2024-02-21T08:32:37;33.17;;;23.20;;
7477;SDS011;3780;42.424;25.636;2024-02-21T08:35:02;32.47;;;22.00;;
7477;SDS011;3780;42.424;25.636;2024-02-21T08:37:28;32.90;;;22.27;;
7477;SDS011;3780;42.424;25.636;2024-02-21T08:39:53;27.73;;;20.90;;
7477;SDS011;3780;42.424;25.636;2024-02-21T08:42:19;29.20;;;21.08;;
7477;SDS011;3780;42.424;25.636;2024-02-21T08:44:44;26.80;;;20.77;;
7477;SDS011;3780;42.424;25.636;2024-02-21T08:47:10;30.80;;;21.55;;
7477;SDS011;3780;42.424;25.636;2024-02-21T08:49:36;29.05;;;21.35;;
7477;SDS011;3780;42.424;25.636;2024-02-21T08:52:02;31.25;;;20.98;;
7477;SDS011;3780;42.424;25.636;2024-02-21T08:54:28;28.30;;;20.13;;
7477;SDS011;3780;42.424;25.636;2024-02-21T08:56:54;35.72;;;22.98;;
7477;SDS011;3780;42.424;25.636;2024-02-21T08:59:19;32.08;;;21.75;;
7477;SDS011;3780;42.424;25.636;2024-02-21T09:01:45;37.60;;;22.90;;
7477;SDS011;3780;42.424;25.636;2024-02-21T09:04:10;23.30;;;17.80;;
7477;SDS011;3780;42.424;25.636;2024-02-21T09:06:36;30.10;;;19.23;;
7477;SDS011;3780;42.424;25.636;2024-02-21T09:09:04;27.92;;;19.65;;
7477;SDS011;3780;42.424;25.636;2024-02-21T09:11:29;26.88;;;19.08;;
7477;SDS011;3780;42.424;25.636;2024-02-21T09:13:55;19.30;;;15.98;;
7477;SDS011;3780;42.424;25.636;2024-02-21T09:16:20;24.35;;;17.33;;
7477;SDS011;3780;42.424;25.636;2024-02-21T09:18:45;30.58;;;20.10;;
7477;SDS011;3780;42.424;25.636;2024-02-21T09:21:11;23.90;;;18.23;;
7477;SDS011;3780;42.424;25.636;2024-02-21T09:23:37;22.45;;;17.00;;
7477;SDS011;3780;42.424;25.636;2024-02-21T09:26:02;21.40;;;15.93;;
7477;SDS011;3780;42.424;25.636;2024-02-21T09:28:29;19.88;;;16.25;;
7477;SDS011;3780;42.424;25.636;2024-02-21T09:30:54;25.42;;;16.42;;
7477;SDS011;3780;42.424;25.636;2024-02-21T09:33:20;23.05;;;16.77;;
7477;SDS011;3780;42.424;25.636;2024-02-21T09:35:45;19.30;;;15.30;;
7477;SDS011;3780;42.424;25.636;2024-02-21T09:38:10;17.35;;;15.18;;
7477;SDS011;3780;42.424;25.636;2024-02-21T09:40:37;22.45;;;16.67;;
7477;SDS011;3780;42.424;25.636;2024-02-21T09:43:04;22.27;;;16.80;;
7477;SDS011;3780;42.424;25.636;2024-02-21T09:45:31;22.38;;;15.88;;
7477;SDS011;3780;42.424;25.636;2024-02-21T09:48:16;24.52;;;16.95;;
7477;SDS011;3780;42.424;25.636;2024-02-21T09:50:44;30.30;;;19.08;;
7477;SDS011;3780;42.424;25.636;2024-02-21T09:53:13;20.80;;;16.53;;
7477;SDS011;3780;42.424;25.636;2024-02-21T09:55:39;20.73;;;15.48;;
7477;SDS011;3780;42.424;25.636;2024-02-21T09:58:07;22.02;;;16.98;;
7477;SDS011;3780;42.424;25.636;2024-02-21T10:00:32;25.15;;;17.20;;
7477;SDS011;3780;42.424;25.636;2024-02-21T10:02:58;22.27;;;15.23;;
7477;SDS011;3780;42.424;25.636;2024-02-21T10:05:24;20.13;;;15.75;;
7477;SDS011;3780;42.424;25.636;2024-02-21T10:20:06;26.98;;;16.50;;
7477;SDS011;3780;42.424;25.636;2024-02-21T10:22:31;20.17;;;16.40;;
7477;SDS011;3780;42.424;25.636;2024-02-21T10:25:09;20.33;;;14.85;;
7477;SDS011;3780;42.424;25.636;2024-02-21T10:27:36;19.80;;;15.60;;
7477;SDS011;3780;42.424;25.636;2024-02-21T10:30:01;21.85;;;16.75;;
7477;SDS011;3780;42.424;25.636;2024-02-21T10:32:27;21.00;;;16.38;;
7477;SDS011;3780;42.424;25.636;2024-02-21T10:35:00;26.05;;;17.58;;
7477;SDS011;3780;42.424;25.636;2024-02-21T10:39:51;25.92;;;18.20;;
7477;SDS011;3780;42.424;25.636;2024-02-21T10:42:16;27.38;;;19.27;;
7477;SDS011;3780;42.424;25.636;2024-02-21T10:44:46;25.38;;;18.17;;
7477;SDS011;3780;42.424;25.636;2024-02-21T10:47:15;28.73;;;19.27;;
7477;SDS011;3780;42.424;25.636;2024-02-21T10:49:46;24.13;;;17.73;;
7477;SDS011;3780;42.424;25.636;2024-02-21T10:52:14;22.15;;;17.15;;
7477;SDS011;3780;42.424;25.636;2024-02-21T10:54:51;26.23;;;18.65;;
7477;SDS011;3780;42.424;25.636;2024-02-21T10:57:18;24.80;;;17.75;;
7477;SDS011;3780;42.424;25.636;2024-02-21T10:59:44;25.80;;;19.10;;
7477;SDS011;3780;42.424;25.636;2024-02-21T11:09:29;26.47;;;17.23;;
7477;SDS011;3780;42.424;25.636;2024-02-21T11:11:55;18.00;;;14.07;;
7477;SDS011;3780;42.424;25.636;2024-02-21T11:19:21;22.30;;;11.60;;
7477;SDS011;3780;42.424;25.636;2024-02-21T11:21:46;15.77;;;10.35;;
7477;SDS011;3780;42.424;25.636;2024-02-21T11:24:13;16.15;;;11.23;;
7477;SDS011;3780;42.424;25.636;2024-02-21T11:26:39;14.88;;;11.88;;
7477;SDS011;3780;42.424;25.636;2024-02-21T11:29:04;11.65;;;9.93;;
7477;SDS011;3780;42.424;25.636;2024-02-21T11:31:43;17.30;;;12.20;;
7477;SDS011;3780;42.424;25.636;2024-02-21T11:34:10;18.27;;;12.02;;
7477;SDS011;3780;42.424;25.636;2024-02-21T11:36:36;17.85;;;11.65;;
7477;SDS011;3780;42.424;25.636;2024-02-21T11:39:11;15.77;;;10.93;;
7477;SDS011;3780;42.424;25.636;2024-02-21T11:41:36;21.65;;;12.43;;
7477;SDS011;3780;42.424;25.636;2024-02-21T11:44:01;15.70;;;11.30;;
7477;SDS011;3780;42.424;25.636;2024-02-21T11:46:27;17.15;;;11.27;;
7477;SDS011;3780;42.424;25.636;2024-02-21T11:48:52;21.92;;;10.68;;
7477;SDS011;3780;42.424;25.636;2024-02-21T11:51:24;10.38;;;7.43;;
7477;SDS011;3780;42.424;25.636;2024-02-21T11:53:50;21.23;;;9.82;;
7477;SDS011;3780;42.424;25.636;2024-02-21T11:56:16;15.55;;;9.82;;
7477;SDS011;3780;42.424;25.636;2024-02-21T11:58:41;13.15;;;10.68;;
7477;SDS011;3780;42.424;25.636;2024-02-21T12:01:07;11.90;;;9.73;;
7477;SDS011;3780;42.424;25.636;2024-02-21T12:03:33;16.92;;;10.23;;
7477;SDS011;3780;42.424;25.636;2024-02-21T12:06:00;17.35;;;11.85;;
7477;SDS011;3780;42.424;25.636;2024-02-21T12:08:26;14.80;;;11.25;;
7477;SDS011;3780;42.424;25.636;2024-02-21T12:10:53;14.20;;;9.82;;
7477;SDS011;3780;42.424;25.636;2024-02-21T12:13:19;14.30;;;9.35;;
7477;SDS011;3780;42.424;25.636;2024-02-21T12:15:47;12.40;;;8.85;;
7477;SDS011;3780;42.424;25.636;2024-02-21T12:18:14;12.27;;;8.30;;
7477;SDS011;3780;42.424;25.636;2024-02-21T12:20:40;16.60;;;9.55;;
7477;SDS011;3780;42.424;25.636;2024-02-21T12:23:08;10.18;;;6.53;;
7477;SDS011;3780;42.424;25.636;2024-02-21T12:25:34;14.00;;;9.45;;
7477;SDS011;3780;42.424;25.636;2024-02-21T12:27:59;14.90;;;11.23;;
7477;SDS011;3780;42.424;25.636;2024-02-21T12:30:25;15.88;;;12.05;;
7477;SDS011;3780;42.424;25.636;2024-02-21T12:32:51;14.00;;;11.98;;
7477;SDS011;3780;42.424;25.636;2024-02-21T12:35:16;16.65;;;11.55;;
7477;SDS011;3780;42.424;25.636;2024-02-21T12:37:42;13.32;;;10.88;;
7477;SDS011;3780;42.424;25.636;2024-02-21T12:40:08;15.02;;;10.40;;
7477;SDS011;3780;42.424;25.636;2024-02-21T12:42:34;18.13;;;12.20;;
7477;SDS011;3780;42.424;25.636;2024-02-21T12:44:59;16.25;;;11.02;;
7477;SDS011;3780;42.424;25.636;2024-02-21T12:47:25;15.30;;;10.68;;
7477;SDS011;3780;42.424;25.636;2024-02-21T12:49:52;15.32;;;9.90;;
7477;SDS011;3780;42.424;25.636;2024-02-21T12:52:17;11.07;;;9.30;;
7477;SDS011;3780;42.424;25.636;2024-02-21T12:54:42;19.00;;;14.27;;
7477;SDS011;3780;42.424;25.636;2024-02-21T12:57:08;15.18;;;10.35;;
7477;SDS011;3780;42.424;25.636;2024-02-21T12:59:33;13.45;;;10.18;;
7477;SDS011;3780;42.424;25.636;2024-02-21T13:01:59;15.13;;;9.73;;
7477;SDS011;3780;42.424;25.636;2024-02-21T13:04:24;11.70;;;8.98;;
7477;SDS011;3780;42.424;25.636;2024-02-21T13:06:49;13.93;;;9.80;;
7477;SDS011;3780;42.424;25.636;2024-02-21T13:09:15;11.75;;;9.75;;
7477;SDS011;3780;42.424;25.636;2024-02-21T13:11:40;15.02;;;10.68;;
7477;SDS011;3780;42.424;25.636;2024-02-21T13:14:07;12.32;;;10.35;;
7477;SDS011;3780;42.424;25.636;2024-02-21T13:16:32;17.52;;;10.77;;
7477;SDS011;3780;42.424;25.636;2024-02-21T13:19:04;16.50;;;10.43;;
7477;SDS011;3780;42.424;25.636;2024-02-21T13:21:29;20.38;;;15.13;;
7477;SDS011;3780;42.424;25.636;2024-02-21T13:23:54;15.95;;;12.10;;
7477;SDS011;3780;42.424;25.636;2024-02-21T13:26:21;19.30;;;12.55;;
7477;SDS011;3780;42.424;25.636;2024-02-21T13:28:46;19.83;;;12.70;;
7477;SDS011;3780;42.424;25.636;2024-02-21T13:31:13;15.88;;;11.77;;
7477;SDS011;3780;42.424;25.636;2024-02-21T13:33:38;15.25;;;10.80;;
7477;SDS011;3780;42.424;25.636;2024-02-21T13:36:03;14.07;;;10.65;;
7477;SDS011;3780;42.424;25.636;2024-02-21T13:38:29;12.40;;;10.20;;
7477;SDS011;3780;42.424;25.636;2024-02-21T13:40:54;11.85;;;9.40;;
7477;SDS011;3780;42.424;25.636;2024-02-21T13:43:19;15.35;;;10.55;;
7477;SDS011;3780;42.424;25.636;2024-02-21T13:46:00;14.90;;;10.80;;
7477;SDS011;3780;42.424;25.636;2024-02-21T13:48:30;15.02;;;10.85;;
7477;SDS011;3780;42.424;25.636;2024-02-21T13:50:55;12.05;;;9.85;;
7477;SDS011;3780;42.424;25.636;2024-02-21T13:53:21;13.93;;;9.93;;
7477;SDS011;3780;42.424;25.636;2024-02-21T13:55:47;13.00;;;10.82;;
7477;SDS011;3780;42.424;25.636;2024-02-21T13:58:12;12.63;;;10.43;;
7477;SDS011;3780;42.424;25.636;2024-02-21T14:00:38;11.75;;;10.07;;
7477;SDS011;3780;42.424;25.636;2024-02-21T14:03:03;19.85;;;15.77;;
7477;SDS011;3780;42.424;25.636;2024-02-21T14:05:29;18.52;;;12.23;;
7477;SDS011;3780;42.424;25.636;2024-02-21T14:07:54;21.02;;;14.48;;
7477;SDS011;3780;42.424;25.636;2024-02-21T14:10:20;17.38;;;12.70;;
7477;SDS011;3780;42.424;25.636;2024-02-21T14:12:45;26.58;;;16.67;;
7477;SDS011;3780;42.424;25.636;2024-02-21T14:15:10;46.40;;;26.70;;
7477;SDS011;3780;42.424;25.636;2024-02-21T14:17:36;14.40;;;10.85;;
7477;SDS011;3780;42.424;25.636;2024-02-21T14:20:01;13.30;;;10.23;;
7477;SDS011;3780;42.424;25.636;2024-02-21T14:22:27;18.48;;;12.93;;
7477;SDS011;3780;42.424;25.636;2024-02-21T14:24:52;15.80;;;12.00;;
7477;SDS011;3780;42.424;25.636;2024-02-21T14:27:17;22.55;;;11.35;;
7477;SDS011;3780;42.424;25.636;2024-02-21T14:29:43;18.70;;;14.18;;
7477;SDS011;3780;42.424;25.636;2024-02-21T14:32:09;17.13;;;13.88;;
7477;SDS011;3780;42.424;25.636;2024-02-21T14:34:35;16.55;;;13.25;;
7477;SDS011;3780;42.424;25.636;2024-02-21T14:37:00;20.05;;;12.82;;
7477;SDS011;3780;42.424;25.636;2024-02-21T14:39:26;14.00;;;10.65;;
7477;SDS011;3780;42.424;25.636;2024-02-21T14:41:51;13.63;;;11.02;;
7477;SDS011;3780;42.424;25.636;2024-02-21T14:53:58;16.83;;;12.27;;
7477;SDS011;3780;42.424;25.636;2024-02-21T14:56:23;14.13;;;10.73;;
7477;SDS011;3780;42.424;25.636;2024-02-21T14:58:49;14.27;;;10.77;;
7477;SDS011;3780;42.424;25.636;2024-02-21T15:01:14;13.30;;;10.85;;
7477;SDS011;3780;42.424;25.636;2024-02-21T15:03:40;13.32;;;9.82;;